sensor_id;sensor_type;location;lat;lon;timestamp;pressure;altitude;pressure_sealevel;temperature;humidity
60371;BME280;48550;40.588;49.684;2023-04-26T00:01:18;101424.25;;;14.93;100.00
60371;BME280;48550;40.588;49.684;2023-04-26T00:03:44;101427.88;;;14.99;100.00
60371;BME280;48550;40.588;49.684;2023-04-26T00:06:10;101432.44;;;14.99;100.00
60371;BME280;48550;40.588;49.684;2023-04-26T00:08:38;101418.13;;;14.98;100.00
60371;BME280;48550;40.588;49.684;2023-04-26T00:11:04;101431.88;;;14.97;100.00
60371;BME280;48550;40.588;49.684;2023-04-26T00:13:29;101433.53;;;14.98;100.00
60371;BME280;48550;40.588;49.684;2023-04-26T00:15:55;101432.94;;;14.96;100.00
60371;BME280;48550;40.588;49.684;2023-04-26T00:18:21;101441.13;;;15.01;100.00
60371;BME280;48550;40.588;49.684;2023-04-26T00:20:47;101431.72;;;15.03;100.00
60371;BME280;48550;40.588;49.684;2023-04-26T00:23:12;101437.47;;;15.07;100.00
60371;BME280;48550;40.588;49.684;2023-04-26T00:25:38;101439.59;;;15.05;100.00
60371;BME280;48550;40.588;49.684;2023-04-26T00:28:04;101444.50;;;15.08;100.00
60371;BME280;48550;40.588;49.684;2023-04-26T00:30:30;101452.38;;;15.09;100.00
60371;BME280;48550;40.588;49.684;2023-04-26T00:32:56;101448.84;;;15.09;100.00
60371;BME280;48550;40.588;49.684;2023-04-26T00:35:22;101448.84;;;15.09;100.00
60371;BME280;48550;40.588;49.684;2023-04-26T00:37:47;101459.41;;;15.10;100.00
60371;BME280;48550;40.588;49.684;2023-04-26T00:40:13;101461.31;;;15.10;100.00
60371;BME280;48550;40.588;49.684;2023-04-26T00:42:41;101467.28;;;15.12;100.00
60371;BME280;48550;40.588;49.684;2023-04-26T00:45:07;101477.84;;;15.13;100.00
60371;BME280;48550;40.588;49.684;2023-04-26T00:47:33;101470.00;;;15.12;100.00
60371;BME280;48550;40.588;49.684;2023-04-26T00:50:00;101475.63;;;15.10;100.00
60371;BME280;48550;40.588;49.684;2023-04-26T00:52:27;101468.84;;;15.08;100.00
60371;BME280;48550;40.588;49.684;2023-04-26T00:54:53;101476.38;;;15.06;100.00
60371;BME280;48550;40.588;49.684;2023-04-26T00:57:20;101469.31;;;15.05;100.00
60371;BME280;48550;40.588;49.684;2023-04-26T00:59:46;101462.75;;;15.01;100.00
60371;BME280;48550;40.588;49.684;2023-04-26T01:02:12;101464.56;;;14.95;100.00
60371;BME280;48550;40.588;49.684;2023-04-26T01:04:38;101464.22;;;14.91;100.00
60371;BME280;48550;40.588;49.684;2023-04-26T01:07:06;101459.56;;;14.87;100.00
60371;BME280;48550;40.588;49.684;2023-04-26T01:09:32;101451.56;;;14.80;100.00
60371;BME280;48550;40.588;49.684;2023-04-26T01:11:59;101465.81;;;14.76;100.00
60371;BME280;48550;40.588;49.684;2023-04-26T01:14:25;101465.94;;;14.69;100.00
60371;BME280;48550;40.588;49.684;2023-04-26T01:16:52;101463.16;;;14.64;100.00
60371;BME280;48550;40.588;49.684;2023-04-26T01:19:18;101463.97;;;14.65;100.00
60371;BME280;48550;40.588;49.684;2023-04-26T01:21:43;101469.63;;;14.63;100.00
60371;BME280;48550;40.588;49.684;2023-04-26T01:24:11;101473.97;;;14.64;100.00
60371;BME280;48550;40.588;49.684;2023-04-26T01:26:38;101462.56;;;14.62;100.00
60371;BME280;48550;40.588;49.684;2023-04-26T01:29:15;101457.66;;;14.59;100.00
60371;BME280;48550;40.588;49.684;2023-04-26T01:31:41;101462.47;;;14.57;100.00
60371;BME280;48550;40.588;49.684;2023-04-26T01:34:06;101466.00;;;14.57;100.00
60371;BME280;48550;40.588;49.684;2023-04-26T01:36:32;101463.31;;;14.57;100.00
60371;BME280;48550;40.588;49.684;2023-04-26T01:38:58;101457.91;;;14.57;100.00
60371;BME280;48550;40.588;49.684;2023-04-26T01:41:24;101454.13;;;14.58;100.00
60371;BME280;48550;40.588;49.684;2023-04-26T01:44:14;101446.03;;;14.58;100.00
60371;BME280;48550;40.588;49.684;2023-04-26T01:46:40;101452.00;;;14.60;100.00
60371;BME280;48550;40.588;49.684;2023-04-26T01:49:05;101448.25;;;14.61;100.00
60371;BME280;48550;40.588;49.684;2023-04-26T01:51:31;101445.06;;;14.65;100.00
60371;BME280;48550;40.588;49.684;2023-04-26T01:53:58;101435.91;;;14.66;100.00
60371;BME280;48550;40.588;49.684;2023-04-26T01:56:24;101439.75;;;14.70;100.00
60371;BME280;48550;40.588;49.684;2023-04-26T01:58:50;101445.50;;;14.73;100.00
60371;BME280;48550;40.588;49.684;2023-04-26T02:01:15;101451.47;;;14.75;100.00
60371;BME280;48550;40.588;49.684;2023-04-26T02:03:41;101453.44;;;14.80;100.00
60371;BME280;48550;40.588;49.684;2023-04-26T02:06:07;101460.81;;;14.84;100.00
60371;BME280;48550;40.588;49.684;2023-04-26T02:08:33;101451.19;;;14.88;100.00
60371;BME280;48550;40.588;49.684;2023-04-26T02:10:58;101447.53;;;14.94;100.00
60371;BME280;48550;40.588;49.684;2023-04-26T02:13:24;101443.59;;;15.02;100.00
60371;BME280;48550;40.588;49.684;2023-04-26T02:16:05;101441.81;;;15.08;100.00
60371;BME280;48550;40.588;49.684;2023-04-26T02:18:33;101436.97;;;15.10;100.00
60371;BME280;48550;40.588;49.684;2023-04-26T02:20:59;101430.81;;;15.14;100.00
60371;BME280;48550;40.588;49.684;2023-04-26T02:23:24;101446.88;;;15.21;100.00
60371;BME280;48550;40.588;49.684;2023-04-26T02:25:50;101457.53;;;15.27;100.00
60371;BME280;48550;40.588;49.684;2023-04-26T02:28:16;101448.34;;;15.29;100.00
60371;BME280;48550;40.588;49.684;2023-04-26T02:30:42;101461.38;;;15.32;100.00
60371;BME280;48550;40.588;49.684;2023-04-26T02:33:08;101473.34;;;15.36;100.00
60371;BME280;48550;40.588;49.684;2023-04-26T02:35:35;101476.97;;;15.41;100.00
60371;BME280;48550;40.588;49.684;2023-04-26T02:38:02;101464.59;;;15.45;100.00
60371;BME280;48550;40.588;49.684;2023-04-26T02:40:28;101472.78;;;15.50;100.00
60371;BME280;48550;40.588;49.684;2023-04-26T02:42:55;101470.41;;;15.54;100.00
60371;BME280;48550;40.588;49.684;2023-04-26T02:48:05;101474.47;;;15.68;100.00
60371;BME280;48550;40.588;49.684;2023-04-26T02:50:31;101471.00;;;15.73;100.00
60371;BME280;48550;40.588;49.684;2023-04-26T02:52:59;101473.78;;;15.78;100.00
60371;BME280;48550;40.588;49.684;2023-04-26T02:55:25;101471.47;;;15.86;100.00
60371;BME280;48550;40.588;49.684;2023-04-26T02:57:51;101482.69;;;15.95;100.00
60371;BME280;48550;40.588;49.684;2023-04-26T03:00:17;101480.13;;;16.05;100.00
60371;BME280;48550;40.588;49.684;2023-04-26T03:02:44;101481.31;;;16.14;100.00
60371;BME280;48550;40.588;49.684;2023-04-26T03:05:10;101487.19;;;16.28;100.00
60371;BME280;48550;40.588;49.684;2023-04-26T03:07:36;101487.09;;;16.40;100.00
60371;BME280;48550;40.588;49.684;2023-04-26T03:10:02;101498.63;;;16.52;100.00
60371;BME280;48550;40.588;49.684;2023-04-26T03:12:29;101502.00;;;16.64;100.00
60371;BME280;48550;40.588;49.684;2023-04-26T03:14:55;101507.06;;;16.77;100.00
60371;BME280;48550;40.588;49.684;2023-04-26T03:17:21;101503.69;;;16.92;100.00
60371;BME280;48550;40.588;49.684;2023-04-26T03:19:53;101513.88;;;17.07;100.00
60371;BME280;48550;40.588;49.684;2023-04-26T03:22:20;101525.47;;;17.24;100.00
60371;BME280;48550;40.588;49.684;2023-04-26T03:24:50;101522.34;;;17.42;100.00
60371;BME280;48550;40.588;49.684;2023-04-26T03:27:16;101527.66;;;17.59;100.00
60371;BME280;48550;40.588;49.684;2023-04-26T03:29:42;101537.06;;;17.78;100.00
60371;BME280;48550;40.588;49.684;2023-04-26T03:32:07;101528.25;;;17.98;100.00
60371;BME280;48550;40.588;49.684;2023-04-26T03:34:33;101540.38;;;18.28;100.00
60371;BME280;48550;40.588;49.684;2023-04-26T03:36:59;101542.09;;;18.49;100.00
60371;BME280;48550;40.588;49.684;2023-04-26T03:39:24;101540.06;;;18.71;100.00
60371;BME280;48550;40.588;49.684;2023-04-26T03:41:50;101547.72;;;18.80;100.00
60371;BME280;48550;40.588;49.684;2023-04-26T03:44:16;101556.16;;;18.88;100.00
60371;BME280;48550;40.588;49.684;2023-04-26T03:46:42;101552.91;;;18.86;100.00
60371;BME280;48550;40.588;49.684;2023-04-26T03:49:08;101554.81;;;18.91;100.00
60371;BME280;48550;40.588;49.684;2023-04-26T03:51:34;101547.22;;;18.98;100.00
60371;BME280;48550;40.588;49.684;2023-04-26T03:53:59;101550.47;;;19.00;100.00
60371;BME280;48550;40.588;49.684;2023-04-26T03:56:25;101550.47;;;18.95;100.00
60371;BME280;48550;40.588;49.684;2023-04-26T03:58:51;101559.19;;;18.97;100.00
60371;BME280;48550;40.588;49.684;2023-04-26T04:01:17;101556.72;;;18.85;100.00
60371;BME280;48550;40.588;49.684;2023-04-26T04:03:43;101563.00;;;18.96;100.00
60371;BME280;48550;40.588;49.684;2023-04-26T04:06:09;101560.00;;;19.02;100.00
60371;BME280;48550;40.588;49.684;2023-04-26T04:08:35;101556.78;;;19.16;100.00
60371;BME280;48550;40.588;49.684;2023-04-26T04:11:01;101559.50;;;19.21;100.00
60371;BME280;48550;40.588;49.684;2023-04-26T04:13:26;101558.75;;;19.35;100.00
60371;BME280;48550;40.588;49.684;2023-04-26T04:15:52;101565.03;;;19.61;99.32
60371;BME280;48550;40.588;49.684;2023-04-26T04:18:18;101565.28;;;19.45;97.63
60371;BME280;48550;40.588;49.684;2023-04-26T04:20:44;101563.13;;;19.67;98.72
60371;BME280;48550;40.588;49.684;2023-04-26T04:23:10;101571.84;;;19.89;93.91
60371;BME280;48550;40.588;49.684;2023-04-26T04:25:36;101563.94;;;19.88;94.10
60371;BME280;48550;40.588;49.684;2023-04-26T04:28:03;101571.81;;;19.99;95.68
60371;BME280;48550;40.588;49.684;2023-04-26T04:30:29;101563.66;;;19.89;92.68
60371;BME280;48550;40.588;49.684;2023-04-26T04:32:58;101564.19;;;20.02;92.89
60371;BME280;48550;40.588;49.684;2023-04-26T04:35:25;101562.53;;;20.21;90.76
60371;BME280;48550;40.588;49.684;2023-04-26T04:37:57;101569.38;;;19.98;94.44
60371;BME280;48550;40.588;49.684;2023-04-26T04:40:24;101562.50;;;20.31;86.47
60371;BME280;48550;40.588;49.684;2023-04-26T04:42:51;101564.41;;;20.36;86.34
60371;BME280;48550;40.588;49.684;2023-04-26T04:45:19;101568.31;;;20.89;82.07
60371;BME280;48550;40.588;49.684;2023-04-26T04:47:44;101570.09;;;21.14;78.13
60371;BME280;48550;40.588;49.684;2023-04-26T04:50:10;101581.47;;;21.31;76.63
60371;BME280;48550;40.588;49.684;2023-04-26T04:52:36;101580.63;;;21.36;75.69
60371;BME280;48550;40.588;49.684;2023-04-26T04:55:02;101576.50;;;21.77;71.02
60371;BME280;48550;40.588;49.684;2023-04-26T04:57:29;101581.84;;;21.59;71.07
60371;BME280;48550;40.588;49.684;2023-04-26T04:59:56;101582.19;;;21.47;71.83
60371;BME280;48550;40.588;49.684;2023-04-26T05:02:22;101592.22;;;21.12;74.24
60371;BME280;48550;40.588;49.684;2023-04-26T05:04:48;101586.66;;;21.33;76.35
60371;BME280;48550;40.588;49.684;2023-04-26T05:07:14;101581.84;;;21.59;71.79
60371;BME280;48550;40.588;49.684;2023-04-26T05:09:42;101578.00;;;21.15;76.19
60371;BME280;48550;40.588;49.684;2023-04-26T05:12:08;101585.22;;;21.40;73.49
60371;BME280;48550;40.588;49.684;2023-04-26T05:14:34;101583.22;;;21.56;72.35
60371;BME280;48550;40.588;49.684;2023-04-26T05:17:00;101591.88;;;21.68;69.10
60371;BME280;48550;40.588;49.684;2023-04-26T05:19:26;101596.34;;;22.70;62.96
60371;BME280;48550;40.588;49.684;2023-04-26T05:21:52;101599.78;;;23.42;60.78
60371;BME280;48550;40.588;49.684;2023-04-26T05:24:17;101600.31;;;23.95;56.01
60371;BME280;48550;40.588;49.684;2023-04-26T05:26:43;101591.16;;;24.32;52.29
60371;BME280;48550;40.588;49.684;2023-04-26T05:29:09;101599.09;;;24.75;53.14
60371;BME280;48550;40.588;49.684;2023-04-26T05:31:35;101601.72;;;24.39;52.33
60371;BME280;48550;40.588;49.684;2023-04-26T05:34:01;101596.56;;;23.91;54.18
60371;BME280;48550;40.588;49.684;2023-04-26T05:36:26;101586.41;;;23.92;55.38
60371;BME280;48550;40.588;49.684;2023-04-26T05:38:52;101591.50;;;24.58;50.51
60371;BME280;48550;40.588;49.684;2023-04-26T05:41:18;101591.88;;;24.79;48.76
60371;BME280;48550;40.588;49.684;2023-04-26T05:43:45;101589.88;;;25.57;47.15
60371;BME280;48550;40.588;49.684;2023-04-26T05:46:11;101602.00;;;25.78;46.52
60371;BME280;48550;40.588;49.684;2023-04-26T05:48:37;101589.56;;;25.81;44.92
60371;BME280;48550;40.588;49.684;2023-04-26T05:51:03;101599.50;;;25.90;45.74
60371;BME280;48550;40.588;49.684;2023-04-26T05:53:29;101601.25;;;25.86;44.98
60371;BME280;48550;40.588;49.684;2023-04-26T05:55:55;101599.66;;;25.27;47.00
60371;BME280;48550;40.588;49.684;2023-04-26T05:58:21;101606.31;;;24.98;48.86
60371;BME280;48550;40.588;49.684;2023-04-26T06:00:46;101607.06;;;26.07;46.73
60371;BME280;48550;40.588;49.684;2023-04-26T06:03:12;101609.00;;;25.62;48.71
60371;BME280;48550;40.588;49.684;2023-04-26T06:05:38;101607.22;;;24.80;52.62
60371;BME280;48550;40.588;49.684;2023-04-26T06:08:04;101607.75;;;23.76;54.44
60371;BME280;48550;40.588;49.684;2023-04-26T06:10:30;101599.59;;;22.72;63.62
60371;BME280;48550;40.588;49.684;2023-04-26T06:12:55;101601.94;;;22.60;65.94
60371;BME280;48550;40.588;49.684;2023-04-26T06:15:21;101609.34;;;22.35;67.25
60371;BME280;48550;40.588;49.684;2023-04-26T06:17:47;101595.31;;;20.96;74.75
60371;BME280;48550;40.588;49.684;2023-04-26T06:20:13;101591.13;;;21.58;72.94
60371;BME280;48550;40.588;49.684;2023-04-26T06:22:38;101597.00;;;20.81;77.28
60371;BME280;48550;40.588;49.684;2023-04-26T06:25:05;101603.16;;;21.07;75.93
60371;BME280;48550;40.588;49.684;2023-04-26T06:27:31;101588.72;;;21.02;78.11
60371;BME280;48550;40.588;49.684;2023-04-26T06:29:56;101599.09;;;21.05;80.18
60371;BME280;48550;40.588;49.684;2023-04-26T06:32:22;101594.88;;;21.28;77.04
60371;BME280;48550;40.588;49.684;2023-04-26T06:34:48;101602.81;;;21.24;77.76
60371;BME280;48550;40.588;49.684;2023-04-26T06:37:13;101604.34;;;21.40;78.41
60371;BME280;48550;40.588;49.684;2023-04-26T06:39:39;101600.22;;;21.43;78.21
60371;BME280;48550;40.588;49.684;2023-04-26T06:42:05;101610.81;;;21.05;80.49
60371;BME280;48550;40.588;49.684;2023-04-26T06:44:31;101609.22;;;21.48;73.79
60371;BME280;48550;40.588;49.684;2023-04-26T06:46:57;101616.63;;;20.88;77.77
60371;BME280;48550;40.588;49.684;2023-04-26T06:49:23;101619.75;;;20.51;82.08
60371;BME280;48550;40.588;49.684;2023-04-26T06:51:48;101620.03;;;19.99;90.39
60371;BME280;48550;40.588;49.684;2023-04-26T06:54:14;101624.41;;;20.00;89.94
60371;BME280;48550;40.588;49.684;2023-04-26T06:56:40;101627.41;;;19.93;95.50
60371;BME280;48550;40.588;49.684;2023-04-26T06:59:06;101638.78;;;19.40;100.00
60371;BME280;48550;40.588;49.684;2023-04-26T07:01:33;101633.91;;;19.52;100.00
60371;BME280;48550;40.588;49.684;2023-04-26T07:04:03;101635.59;;;19.98;94.24
60371;BME280;48550;40.588;49.684;2023-04-26T07:06:30;101638.56;;;19.97;94.39
60371;BME280;48550;40.588;49.684;2023-04-26T07:08:58;101644.03;;;19.97;91.18
60371;BME280;48550;40.588;49.684;2023-04-26T07:11:24;101633.94;;;20.23;90.72
60371;BME280;48550;40.588;49.684;2023-04-26T07:13:50;101637.78;;;20.17;88.64
60371;BME280;48550;40.588;49.684;2023-04-26T07:16:16;101635.03;;;19.61;88.06
60371;BME280;48550;40.588;49.684;2023-04-26T07:18:42;101633.16;;;20.07;87.54
60371;BME280;48550;40.588;49.684;2023-04-26T07:21:08;101626.03;;;19.86;84.49
60371;BME280;48550;40.588;49.684;2023-04-26T07:23:34;101629.03;;;20.05;88.55
60371;BME280;48550;40.588;49.684;2023-04-26T07:26:00;101625.59;;;20.94;80.77
60371;BME280;48550;40.588;49.684;2023-04-26T07:28:26;101637.78;;;21.66;69.83
60371;BME280;48550;40.588;49.684;2023-04-26T07:30:52;101639.47;;;21.62;69.40
60371;BME280;48550;40.588;49.684;2023-04-26T07:33:18;101636.81;;;20.87;71.08
60371;BME280;48550;40.588;49.684;2023-04-26T07:35:44;101636.84;;;20.72;78.29
60371;BME280;48550;40.588;49.684;2023-04-26T07:38:10;101643.22;;;19.86;86.87
60371;BME280;48550;40.588;49.684;2023-04-26T07:40:38;101642.13;;;19.97;86.88
60371;BME280;48550;40.588;49.684;2023-04-26T07:43:04;101630.53;;;19.14;94.70
60371;BME280;48550;40.588;49.684;2023-04-26T07:45:31;101627.78;;;19.14;95.63
60371;BME280;48550;40.588;49.684;2023-04-26T07:47:56;101637.63;;;19.25;96.18
60371;BME280;48550;40.588;49.684;2023-04-26T07:50:23;101639.03;;;19.33;92.51
60371;BME280;48550;40.588;49.684;2023-04-26T07:52:49;101632.59;;;19.80;87.08
60371;BME280;48550;40.588;49.684;2023-04-26T07:55:15;101634.75;;;19.93;86.02
60371;BME280;48550;40.588;49.684;2023-04-26T07:57:41;101629.03;;;19.89;85.70
60371;BME280;48550;40.588;49.684;2023-04-26T08:00:07;101619.78;;;20.16;85.66
60371;BME280;48550;40.588;49.684;2023-04-26T08:02:36;101613.81;;;20.09;81.65
60371;BME280;48550;40.588;49.684;2023-04-26T08:05:02;101620.88;;;19.84;83.21
60371;BME280;48550;40.588;49.684;2023-04-26T08:07:27;101615.63;;;19.42;88.32
60371;BME280;48550;40.588;49.684;2023-04-26T08:09:53;101609.91;;;19.39;89.75
60371;BME280;48550;40.588;49.684;2023-04-26T08:12:19;101616.94;;;19.24;89.75
60371;BME280;48550;40.588;49.684;2023-04-26T08:14:44;101618.66;;;18.68;98.06
60371;BME280;48550;40.588;49.684;2023-04-26T08:17:10;101613.47;;;18.66;99.17
60371;BME280;48550;40.588;49.684;2023-04-26T08:19:36;101608.44;;;19.00;100.00
60371;BME280;48550;40.588;49.684;2023-04-26T08:22:02;101612.00;;;19.11;98.59
60371;BME280;48550;40.588;49.684;2023-04-26T08:24:28;101622.94;;;19.26;94.37
60371;BME280;48550;40.588;49.684;2023-04-26T08:26:54;101618.28;;;19.22;94.00
60371;BME280;48550;40.588;49.684;2023-04-26T08:29:22;101617.47;;;19.26;95.97
60371;BME280;48550;40.588;49.684;2023-04-26T08:31:47;101620.97;;;19.12;94.79
60371;BME280;48550;40.588;49.684;2023-04-26T08:34:13;101613.13;;;19.30;94.30
60371;BME280;48550;40.588;49.684;2023-04-26T08:36:39;101616.47;;;19.43;90.45
60371;BME280;48550;40.588;49.684;2023-04-26T08:39:08;101612.31;;;19.20;95.69
60371;BME280;48550;40.588;49.684;2023-04-26T08:41:53;101611.44;;;19.09;96.70
60371;BME280;48550;40.588;49.684;2023-04-26T08:44:23;101603.25;;;18.99;98.19
60371;BME280;48550;40.588;49.684;2023-04-26T08:51:53;101602.19;;;19.05;93.78
60371;BME280;48550;40.588;49.684;2023-04-26T08:54:20;101605.44;;;19.02;97.23
60371;BME280;48550;40.588;49.684;2023-04-26T08:56:47;101599.16;;;18.91;98.99
60371;BME280;48550;40.588;49.684;2023-04-26T08:59:14;101595.69;;;18.54;100.00
60371;BME280;48550;40.588;49.684;2023-04-26T09:01:41;101598.94;;;18.56;98.67
60371;BME280;48550;40.588;49.684;2023-04-26T09:04:08;101597.22;;;18.39;100.00
60371;BME280;48550;40.588;49.684;2023-04-26T09:06:34;101603.53;;;18.50;100.00
60371;BME280;48550;40.588;49.684;2023-04-26T09:09:03;101598.63;;;18.47;100.00
60371;BME280;48550;40.588;49.684;2023-04-26T09:11:53;101597.28;;;18.02;100.00
60371;BME280;48550;40.588;49.684;2023-04-26T09:14:20;101595.53;;;17.86;100.00
60371;BME280;48550;40.588;49.684;2023-04-26T09:16:46;101594.81;;;18.01;100.00
60371;BME280;48550;40.588;49.684;2023-04-26T09:19:11;101585.94;;;17.52;100.00
60371;BME280;48550;40.588;49.684;2023-04-26T09:21:44;101587.84;;;17.51;100.00
60371;BME280;48550;40.588;49.684;2023-04-26T09:24:11;101586.03;;;17.62;100.00
60371;BME280;48550;40.588;49.684;2023-04-26T09:26:38;101578.44;;;17.64;100.00
60371;BME280;48550;40.588;49.684;2023-04-26T09:29:15;101582.13;;;17.79;100.00
60371;BME280;48550;40.588;49.684;2023-04-26T09:31:44;101584.47;;;17.98;100.00
60371;BME280;48550;40.588;49.684;2023-04-26T09:34:11;101578.25;;;17.70;100.00
60371;BME280;48550;40.588;49.684;2023-04-26T09:36:53;101589.38;;;18.01;100.00
60371;BME280;48550;40.588;49.684;2023-04-26T09:39:40;101589.59;;;17.94;100.00
60371;BME280;48550;40.588;49.684;2023-04-26T09:42:07;101576.97;;;17.78;100.00
60371;BME280;48550;40.588;49.684;2023-04-26T09:44:33;101572.09;;;17.80;100.00
60371;BME280;48550;40.588;49.684;2023-04-26T09:47:04;101579.72;;;17.83;100.00
60371;BME280;48550;40.588;49.684;2023-04-26T09:49:47;101576.00;;;17.62;100.00
60371;BME280;48550;40.588;49.684;2023-04-26T09:52:15;101578.44;;;17.64;100.00
60371;BME280;48550;40.588;49.684;2023-04-26T09:54:49;101583.22;;;17.52;100.00
60371;BME280;48550;40.588;49.684;2023-04-26T09:57:20;101577.38;;;17.65;100.00
60371;BME280;48550;40.588;49.684;2023-04-26T09:59:50;101575.19;;;17.62;100.00
60371;BME280;48550;40.588;49.684;2023-04-26T10:02:20;101571.00;;;17.81;100.00
60371;BME280;48550;40.588;49.684;2023-04-26T10:04:48;101572.19;;;17.90;100.00
60371;BME280;48550;40.588;49.684;2023-04-26T10:07:16;101575.97;;;17.84;100.00
60371;BME280;48550;40.588;49.684;2023-04-26T10:09:43;101567.47;;;17.81;100.00
60371;BME280;48550;40.588;49.684;2023-04-26T10:12:14;101564.59;;;17.92;100.00
60371;BME280;48550;40.588;49.684;2023-04-26T10:14:41;101568.66;;;17.90;100.00
60371;BME280;48550;40.588;49.684;2023-04-26T10:17:09;101571.75;;;17.71;100.00
60371;BME280;48550;40.588;49.684;2023-04-26T10:19:37;101558.75;;;17.46;100.00
60371;BME280;48550;40.588;49.684;2023-04-26T10:22:15;101557.25;;;17.61;100.00
60371;BME280;48550;40.588;49.684;2023-04-26T10:24:43;101565.41;;;17.61;100.00
60371;BME280;48550;40.588;49.684;2023-04-26T10:27:09;101554.91;;;17.69;100.00
60371;BME280;48550;40.588;49.684;2023-04-26T10:32:22;101547.09;;;17.46;100.00
60371;BME280;48550;40.588;49.684;2023-04-26T10:35:10;101554.53;;;17.61;100.00
60371;BME280;48550;40.588;49.684;2023-04-26T10:40:30;101551.41;;;17.74;100.00
60371;BME280;48550;40.588;49.684;2023-04-26T10:45:39;101557.72;;;17.53;100.00
60371;BME280;48550;40.588;49.684;2023-04-26T10:48:23;101547.59;;;17.43;100.00
60371;BME280;48550;40.588;49.684;2023-04-26T11:01:33;101540.16;;;17.28;100.00
60371;BME280;48550;40.588;49.684;2023-04-26T11:04:00;101550.66;;;17.20;100.00
60371;BME280;48550;40.588;49.684;2023-04-26T11:06:51;101552.47;;;17.41;100.00
60371;BME280;48550;40.588;49.684;2023-04-26T11:09:49;101556.25;;;17.40;100.00
60371;BME280;48550;40.588;49.684;2023-04-26T11:12:16;101554.16;;;17.47;100.00
60371;BME280;48550;40.588;49.684;2023-04-26T11:14:43;101552.84;;;17.55;100.00
60371;BME280;48550;40.588;49.684;2023-04-26T11:17:10;101543.63;;;17.56;100.00
60371;BME280;48550;40.588;49.684;2023-04-26T11:19:37;101544.41;;;17.51;100.00
60371;BME280;48550;40.588;49.684;2023-04-26T11:22:06;101544.94;;;17.48;100.00
60371;BME280;48550;40.588;49.684;2023-04-26T11:24:33;101546.88;;;17.53;100.00
60371;BME280;48550;40.588;49.684;2023-04-26T11:27:10;101550.22;;;17.65;100.00
60371;BME280;48550;40.588;49.684;2023-04-26T11:29:36;101548.31;;;17.65;100.00
60371;BME280;48550;40.588;49.684;2023-04-26T11:32:03;101543.94;;;17.59;100.00
60371;BME280;48550;40.588;49.684;2023-04-26T11:34:36;101542.94;;;17.38;100.00
60371;BME280;48550;40.588;49.684;2023-04-26T11:37:04;101546.78;;;17.42;100.00
60371;BME280;48550;40.588;49.684;2023-04-26T11:39:34;101549.00;;;17.19;100.00
60371;BME280;48550;40.588;49.684;2023-04-26T11:42:06;101541.44;;;17.21;100.00
60371;BME280;48550;40.588;49.684;2023-04-26T11:44:32;101542.16;;;17.11;100.00
60371;BME280;48550;40.588;49.684;2023-04-26T11:47:01;101539.00;;;16.97;100.00
60371;BME280;48550;40.588;49.684;2023-04-26T11:49:29;101540.22;;;16.84;100.00
60371;BME280;48550;40.588;49.684;2023-04-26T11:51:56;101536.75;;;16.89;100.00
60371;BME280;48550;40.588;49.684;2023-04-26T11:54:29;101538.94;;;16.92;100.00
60371;BME280;48550;40.588;49.684;2023-04-26T11:56:58;101534.00;;;17.11;100.00
60371;BME280;48550;40.588;49.684;2023-04-26T11:59:29;101529.03;;;17.03;100.00
60371;BME280;48550;40.588;49.684;2023-04-26T12:01:58;101531.78;;;17.08;100.00
60371;BME280;48550;40.588;49.684;2023-04-26T12:04:27;101528.84;;;17.09;100.00
60371;BME280;48550;40.588;49.684;2023-04-26T12:06:56;101534.28;;;17.09;100.00
60371;BME280;48550;40.588;49.684;2023-04-26T12:09:31;101530.09;;;17.02;100.00
60371;BME280;48550;40.588;49.684;2023-04-26T12:12:01;101528.75;;;17.04;100.00
60371;BME280;48550;40.588;49.684;2023-04-26T12:14:31;101525.38;;;16.92;100.00
60371;BME280;48550;40.588;49.684;2023-04-26T12:16:58;101520.81;;;16.71;100.00
60371;BME280;48550;40.588;49.684;2023-04-26T12:19:26;101520.16;;;16.86;100.00
60371;BME280;48550;40.588;49.684;2023-04-26T12:21:52;101525.53;;;16.80;100.00
60371;BME280;48550;40.588;49.684;2023-04-26T12:24:27;101521.13;;;16.74;100.00
60371;BME280;48550;40.588;49.684;2023-04-26T12:27:04;101515.72;;;16.74;100.00
60371;BME280;48550;40.588;49.684;2023-04-26T12:29:33;101516.06;;;16.83;100.00
60371;BME280;48550;40.588;49.684;2023-04-26T12:32:00;101517.91;;;16.77;100.00
60371;BME280;48550;40.588;49.684;2023-04-26T12:34:26;101509.78;;;16.77;100.00
60371;BME280;48550;40.588;49.684;2023-04-26T12:36:52;101513.00;;;16.74;100.00
60371;BME280;48550;40.588;49.684;2023-04-26T12:39:17;101509.50;;;16.57;100.00
60371;BME280;48550;40.588;49.684;2023-04-26T12:41:44;101515.44;;;16.54;100.00
60371;BME280;48550;40.588;49.684;2023-04-26T12:44:11;101515.13;;;16.50;100.00
60371;BME280;48550;40.588;49.684;2023-04-26T12:46:38;101507.75;;;16.46;100.00
60371;BME280;48550;40.588;49.684;2023-04-26T12:49:04;101511.22;;;16.41;100.00
60371;BME280;48550;40.588;49.684;2023-04-26T12:51:30;101506.75;;;16.52;100.00
60371;BME280;48550;40.588;49.684;2023-04-26T12:53:58;101503.97;;;16.47;100.00
60371;BME280;48550;40.588;49.684;2023-04-26T12:56:24;101508.31;;;16.48;100.00
60371;BME280;48550;40.588;49.684;2023-04-26T12:58:50;101505.63;;;16.48;100.00
60371;BME280;48550;40.588;49.684;2023-04-26T13:01:16;101508.25;;;16.43;100.00